• Join FlightAware (Why Join?)
  • Login
  • US Flag 
09:38PM EDT


 

Airport Tracker/Info


-or-


 

Live Flight TrackerFlight Track Log ✈ JZA8145 ✈ 06-May-2013 ✈ CYEG - CYYC

Flight Track Log - Related Links

Times and Time Zones

All times are in EDT time to prevent confusion due to time zone crossing. See the JZA8145 flight status page for this flight to view local times or setup timezone preferences in your user account.

Time Position Orientation Groundspeed Altitude Reporting Facility
EDT Latitude Longitude Course Direction KTS MPH feet Rate Location/Type
02:58PM 53.2333 -113.5333 166° South 140 161 5,000  Level Edmonton Center
02:59PM 53.1833 -113.5667 202° Southwest 150 173 6,400 1,500 Climbing Edmonton Center
03:00PM 53.1500 -113.5500 163° South 150 173 8,100 1,380 Climbing Edmonton Center
03:01PM 53.0611 -113.8148 169° South  Level FlightAware Approximate
03:01PM 53.1000 -113.5333 169° South 170 196 9,200  Level Edmonton Center
03:02PM 52.9942 -113.7925 169° South  Level FlightAware Approximate
03:02PM 53.0500 -113.5667 202° Southwest 180 207 10,400  Level Edmonton Center
03:03PM 52.9274 -113.7702 169° South  Level FlightAware Approximate
03:04PM 52.9578 -113.5892 188° South  Level Estimated
03:04PM 52.8611 -113.7444 166° South  Level FlightAware Approximate
03:05PM 52.8833 -113.5500 188° South 190 219 14,100  Level Edmonton Center
03:07PM 52.7915 -113.5754 170° South  Level Estimated
03:07PM 52.7667 -113.5500 170° South 200 230 16,300  Level Edmonton Center
03:08PM 52.7167 -113.5833 202° Southwest 210 242 16,900 300 Climbing Edmonton Center
03:09PM 52.6500 -113.5833 180° South 240 276 16,900  Level Edmonton Center
03:10PM 52.5667 -113.5667 173° South 260 299 16,900  Level Edmonton Center
03:11PM 52.4857 -113.7030 188° South  Level Estimated
03:11PM 52.5000 -113.5833 189° South 270 311 16,900  Level Edmonton Center
03:12PM 52.4167 -113.6000 187° South 280 322 16,900  Level Edmonton Center
03:13PM 52.3333 -113.5833 173° South 280 322 16,900  Level Edmonton Center
03:15PM 52.2160 -113.5364 166° South  Level FlightAware Approximate
03:15PM 52.1667 -113.6000 166° South 270 311 16,900  Level Edmonton Center
03:16PM 52.1000 -113.5833 171° South 270 311 16,900  Level Edmonton Center
03:17PM 52.0167 -113.6000 187° South 280 322 16,900 -720 Level Edmonton Center
03:19PM 51.8961 -113.5890 177° South  Level FlightAware Approximate
03:19PM 51.8667 -113.6167 177° South 290 334 14,900  Level Edmonton Center
03:20PM 51.7833 -113.6333 187° South 290 334 13,200 -1,440 Descending Edmonton Center
03:22PM 51.6662 -113.6833 180° South  Level FlightAware Approximate
03:22PM 51.6333 -113.6833 180° South 270 311 10,600  Level Edmonton Center
03:23PM 51.5667 -113.7333 205° Southwest 260 299 9,600 -900 Descending Edmonton Center
03:24PM 51.5167 -113.7667 202° Southwest 250 288 8,800 -480 Descending Edmonton Center
03:25PM 51.4544 -113.8049 202° Southwest  Level FlightAware Approximate
03:28PM 51.3034 -113.8945 199° South  Level FlightAware Approximate
03:28PM 51.2833 -113.9667 199° South 210 242 7,200  Level Edmonton Center
03:29PM 51.2167 -114.0167 205° Southwest 210 242 6,500 -960 Descending Edmonton Center
03:30PM 51.1667 -114.0167 180° South 190 219 5,300 -600 Descending Edmonton Center
03:34PM 51.0833 -114.0333 187° South 20 23 3,600 -480 Descending Edmonton Center